Time;durP1;ratioP1;P1;durP2;ratioP2;P2;SDS_P1;SDS_P2;PMS_P1;PMS_P2;Temp;Humidity;BMP_temperature;BMP_pressure;BME280_temperature;BME280_humidity;BME280_pressure;Samples;Min_cycle;Max_cycle;Signal;HPM_P1;HPM_P2
2022/12/13 00:00:33;;;;;;;9.50;8.52;;;;;;;-7.58;100.00;100896.16;10330169;28;20090;-74
2022/12/13 00:05:43;;;;;;;5.75;5.32;;;;;;;-7.62;100.00;100886.72;10329961;28;20147;-74
2022/12/13 00:10:47;;;;;;;7.18;6.68;;;;;;;-7.46;100.00;100879.63;10328155;28;20085;-73
2022/12/13 00:15:56;;;;;;;;;;;;;;;-7.57;100.00;100874.22;10330950;28;20069;-72
2022/12/13 00:20:59;;;;;;;14.13;7.40;;;;;;;-7.65;100.00;100872.28;10330597;28;19967;-73
2022/12/13 00:26:04;;;;;;;8.20;6.82;;;;;;;-7.68;100.00;100873.84;10329683;28;20077;-74
2022/12/13 00:31:06;;;;;;;9.10;8.00;;;;;;;-7.70;100.00;100868.72;10329639;28;20497;-74
2022/12/13 00:36:10;;;;;;;11.00;7.75;;;;;;;-7.75;100.00;100870.25;10329962;28;20075;-75
2022/12/13 00:41:15;;;;;;;7.97;7.25;;;;;;;-7.87;100.00;100880.84;10330433;28;20134;-74
2022/12/13 00:46:21;;;;;;;10.65;7.35;;;;;;;-7.92;100.00;100872.19;10337321;28;20498;-74
2022/12/13 00:51:25;;;;;;;7.38;6.68;;;;;;;-8.01;100.00;100873.63;10337278;28;20163;-74
2022/12/13 00:56:31;;;;;;;6.05;5.53;;;;;;;-8.02;100.00;100856.69;10337517;28;20081;-74
2022/12/13 01:01:36;;;;;;;7.68;5.10;;;;;;;-7.88;100.00;100861.34;10337503;28;20100;-74
2022/12/13 01:06:41;;;;;;;7.32;6.63;;;;;;;-7.90;100.00;100860.47;10336345;28;20112;-75
2022/12/13 01:11:44;;;;;;;6.57;6.10;;;;;;;-7.83;100.00;100862.41;10334706;28;20081;-73
2022/12/13 01:16:46;;;;;;;6.70;6.07;;;;;;;-7.87;100.00;100850.44;10337011;28;20078;-75
2022/12/13 01:21:49;;;;;;;7.15;6.10;;;;;;;-7.77;100.00;100847.38;10337385;28;20098;-74
2022/12/13 01:26:52;;;;;;;6.45;5.97;;;;;;;-7.65;100.00;100857.06;10336174;28;20077;-75
2022/12/13 01:31:54;;;;;;;9.02;6.65;;;;;;;-7.65;100.00;100854.53;10335675;28;20464;-76
2022/12/13 01:36:58;;;;;;;5.90;5.43;;;;;;;-7.62;100.00;100854.59;10335575;28;20146;-75
2022/12/13 01:42:02;;;;;;;7.00;6.53;;;;;;;-7.80;100.00;100857.41;10333909;28;20099;-75
2022/12/13 01:47:04;;;;;;;6.70;6.28;;;;;;;-7.92;100.00;100864.59;10335778;28;20069;-74
2022/12/13 01:52:13;;;;;;;6.90;6.35;;;;;;;-7.81;100.00;100875.97;10334800;28;20072;-74
2022/12/13 01:57:19;;;;;;;7.45;6.80;;;;;;;-7.71;100.00;100866.13;10335015;28;20480;-74
2022/12/13 02:02:22;;;;;;;6.40;5.97;;;;;;;-7.90;100.00;100855.41;10335367;28;20143;-74
2022/12/13 02:07:30;;;;;;;7.70;6.95;;;;;;;-8.01;100.00;100863.47;10334463;28;20478;-74
2022/12/13 02:12:37;;;;;;;7.32;6.50;;;;;;;-8.02;100.00;100866.84;10332731;28;20100;-74
2022/12/13 02:18:07;;;;;;;8.30;5.60;;;;;;;-8.10;100.00;100858.13;10334652;28;20122;-75
2022/12/13 02:23:37;;;;;;;6.78;6.25;;;;;;;-8.12;100.00;100854.66;10334414;28;20095;-75
2022/12/13 02:29:10;;;;;;;7.38;6.78;;;;;;;-8.21;100.00;100859.41;10334570;28;20133;-73
2022/12/13 02:34:20;;;;;;;;;;;;;;;-8.28;100.00;100853.28;10334085;28;20115;-74
2022/12/13 02:39:30;;;;;;;5.18;4.78;;;;;;;-8.25;100.00;100855.03;10331033;28;19958;-74
2022/12/13 02:44:41;;;;;;;6.78;6.32;;;;;;;-8.30;100.00;100858.28;10333415;28;20097;-74
2022/12/13 02:49:51;;;;;;;7.15;6.43;;;;;;;-8.28;100.00;100846.53;10332714;28;20087;-73
2022/12/13 02:54:54;;;;;;;6.88;6.28;;;;;;;-8.29;100.00;100839.75;10333041;28;20073;-73
2022/12/13 02:59:59;;;;;;;7.70;6.68;;;;;;;-8.30;100.00;100834.63;10332588;28;20085;-75
2022/12/13 03:10:49;;;;;;;6.25;5.65;;;;;;;-8.34;100.00;100825.19;10329629;28;20270;-74
2022/12/13 03:15:58;;;;;;;7.15;6.53;;;;;;;-8.35;100.00;100831.91;10332356;28;20076;-74
2022/12/13 03:21:05;;;;;;;6.97;6.40;;;;;;;-8.37;100.00;100833.53;10331579;28;20092;-74
2022/12/13 03:26:11;;;;;;;6.32;5.82;;;;;;;-8.23;100.00;100830.63;10331976;28;20096;-74
2022/12/13 03:31:12;;;;;;;7.68;6.88;;;;;;;-8.27;100.00;100829.66;10331392;28;20132;-74
2022/12/13 03:36:17;;;;;;;6.95;6.25;;;;;;;-8.30;100.00;100832.97;10331319;28;20124;-74
2022/12/13 03:41:22;;;;;;;7.43;6.70;;;;;;;-8.23;100.00;100831.50;10328893;28;20099;-74
2022/12/13 03:46:24;;;;;;;11.68;7.82;;;;;;;-8.27;100.00;100824.59;10330259;28;20080;-74
2022/12/13 03:51:28;;;;;;;13.93;6.53;;;;;;;-8.32;100.00;100832.03;10330786;28;20083;-75
2022/12/13 03:56:29;;;;;;;6.32;5.82;;;;;;;-8.37;100.00;100823.41;10330829;28;20082;-74
2022/12/13 04:01:31;;;;;;;7.32;6.60;;;;;;;-8.28;100.00;100823.72;10331991;28;20094;-74
2022/12/13 04:06:34;;;;;;;8.90;6.43;;;;;;;-8.39;100.00;100825.03;10330293;28;20109;-74
2022/12/13 04:16:55;;;;;;;6.60;6.03;;;;;;;-8.53;100.00;100811.91;10333654;28;20070;-74
2022/12/13 04:21:58;;;;;;;7.25;6.50;;;;;;;-8.56;100.00;100812.66;10338167;28;20580;-74
2022/12/13 04:27:01;;;;;;;6.45;5.93;;;;;;;-8.59;100.00;100804.97;10337806;28;20083;-74
2022/12/13 04:32:04;;;;;;;8.57;6.32;;;;;;;-8.61;100.00;100809.13;10337819;28;20079;-74
2022/12/13 04:37:09;;;;;;;9.95;6.55;;;;;;;-8.66;100.00;100810.59;10338337;28;20136;-74
2022/12/13 04:42:11;;;;;;;6.15;5.70;;;;;;;-8.67;100.00;100804.69;10335032;28;20091;-75
2022/12/13 04:47:14;;;;;;;9.15;7.40;;;;;;;-8.74;100.00;100802.75;10337502;28;20430;-74
2022/12/13 04:52:17;;;;;;;6.85;5.97;;;;;;;-8.75;100.00;100790.03;10337218;28;20478;-74
2022/12/13 04:57:19;;;;;;;7.05;6.32;;;;;;;-8.77;100.00;100795.03;10337639;28;20132;-76
2022/12/13 05:02:21;;;;;;;9.43;7.07;;;;;;;-8.79;100.00;100795.00;10336399;28;20138;-74
2022/12/13 05:07:25;;;;;;;7.55;6.50;;;;;;;-8.81;100.00;100791.56;10337595;28;20131;-74
2022/12/13 05:12:27;;;;;;;7.57;5.43;;;;;;;-8.70;100.00;100791.06;10334232;28;20080;-75
2022/12/13 05:17:29;;;;;;;6.93;6.38;;;;;;;-8.76;100.00;100789.16;10336355;28;20593;-75
2022/12/13 05:22:33;;;;;;;9.35;8.48;;;;;;;-8.74;100.00;100791.75;10336737;28;20390;-75
2022/12/13 05:27:35;;;;;;;7.32;5.72;;;;;;;-8.77;100.00;100786.63;10335262;28;20134;-75
2022/12/13 05:32:37;;;;;;;5.50;5.07;;;;;;;-8.83;100.00;100777.97;10336241;28;20083;-75
2022/12/13 05:37:40;;;;;;;7.18;6.30;;;;;;;-8.90;100.00;100776.03;10336045;28;20214;-75
2022/12/13 05:42:42;;;;;;;6.65;6.05;;;;;;;-8.92;100.00;100777.66;10333960;28;20093;-75
2022/12/13 05:47:46;;;;;;;11.50;6.32;;;;;;;-8.94;100.00;100779.25;10334620;28;20081;-75
2022/12/13 05:52:49;;;;;;;9.02;7.35;;;;;;;-8.93;100.00;100770.88;10333936;28;20494;-76
2022/12/13 05:57:51;;;;;;;7.10;6.30;;;;;;;-8.96;100.00;100758.13;10333681;28;20086;-75
2022/12/13 06:02:52;;;;;;;5.85;5.30;;;;;;;-9.01;100.00;100767.22;10333081;28;20112;-76
2022/12/13 06:07:58;;;;;;;6.82;6.43;;;;;;;-9.01;100.00;100762.16;10332992;28;20396;-75
2022/12/13 06:12:59;;;;;;;4.97;4.53;;;;;;;-8.89;100.00;100777.78;10331097;28;20076;-74
2022/12/13 06:18:01;;;;;;;5.43;4.97;;;;;;;-8.92;100.00;100778.53;10332317;28;20120;-75
2022/12/13 06:23:04;;;;;;;5.22;4.85;;;;;;;-8.95;100.00;100777.53;10332246;28;20100;-75
2022/12/13 06:28:06;;;;;;;6.78;5.40;;;;;;;-8.94;100.00;100776.72;10331729;28;20528;-75
2022/12/13 06:33:09;;;;;;;5.75;5.18;;;;;;;-8.92;100.00;100777.66;10333128;28;20089;-74
2022/12/13 06:38:13;;;;;;;6.65;5.63;;;;;;;-8.87;100.00;100781.19;10332553;28;20082;-74
2022/12/13 06:43:14;;;;;;;4.90;4.60;;;;;;;-8.86;100.00;100782.91;10329193;28;20107;-74
2022/12/13 06:48:16;;;;;;;6.22;5.70;;;;;;;-8.90;100.00;100782.78;10345060;28;20086;-74
2022/12/13 06:53:19;;;;;;;4.50;4.22;;;;;;;-8.84;100.00;100773.72;10364428;28;20097;-74
2022/12/13 06:58:23;;;;;;;11.52;5.72;;;;;;;-8.53;100.00;100769.72;10386107;28;20572;-74
2022/12/13 07:03:24;;;;;;;7.93;7.03;;;;;;;-8.53;100.00;100767.19;10390839;28;20096;-74
2022/12/13 07:08:29;;;;;;;14.05;6.38;;;;;;;-8.62;100.00;100771.97;10399415;28;20076;-74
2022/12/13 07:13:31;;;;;;;7.55;6.13;;;;;;;-8.68;100.00;100782.75;10369897;28;20126;-74
2022/12/13 07:18:33;;;;;;;9.65;5.65;;;;;;;-8.71;100.00;100766.56;10371265;28;20566;-73
2022/12/13 07:23:38;;;;;;;9.63;6.75;;;;;;;-8.72;100.00;100769.91;10371151;28;20093;-74
2022/12/13 07:28:41;;;;;;;16.10;6.28;;;;;;;-8.81;100.00;100771.31;10370454;28;20084;-73
2022/12/13 07:33:43;;;;;;;5.93;5.22;;;;;;;-8.80;100.00;100767.97;10371359;28;20102;-72
2022/12/13 07:38:51;;;;;;;10.35;7.07;;;;;;;-8.72;100.00;100780.03;10368036;28;20589;-74
2022/12/13 07:43:54;;;;;;;12.32;7.78;;;;;;;-8.76;100.00;100780.75;10369736;28;20136;-74
2022/12/13 07:48:55;;;;;;;7.28;6.10;;;;;;;-8.68;100.00;100772.63;10371574;28;20536;-74
2022/12/13 07:53:59;;;;;;;8.13;7.35;;;;;;;-8.63;100.00;100785.41;10370516;28;20482;-73
2022/12/13 07:59:01;;;;;;;6.63;6.05;;;;;;;-8.38;100.00;100791.31;10371383;28;20077;-73
2022/12/13 08:04:04;;;;;;;7.28;6.57;;;;;;;-8.27;100.00;100787.50;10370489;28;20103;-73
2022/12/13 08:09:09;;;;;;;8.52;7.75;;;;;;;-8.11;100.00;100777.84;10368838;28;20161;-73
2022/12/13 08:14:11;;;;;;;10.90;6.93;;;;;;;-7.94;100.00;100782.63;10370569;28;20593;-73
2022/12/13 08:19:14;;;;;;;12.05;8.93;;;;;;;-7.73;100.00;100786.66;10371171;28;20127;-74
2022/12/13 08:24:17;;;;;;;12.75;11.10;;;;;;;-7.42;100.00;100793.56;10370336;28;20551;-73
2022/12/13 08:29:19;;;;;;;17.10;9.88;;;;;;;-7.24;100.00;100800.88;10371031;28;20535;-72
2022/12/13 08:34:21;;;;;;;18.35;8.80;;;;;;;-7.06;100.00;100804.75;10370196;28;20557;-73
2022/12/13 08:39:25;;;;;;;10.63;7.55;;;;;;;-6.64;100.00;100800.84;10367705;28;20081;-73
2022/12/13 08:44:27;;;;;;;18.58;12.27;;;;;;;-6.28;100.00;100791.66;10370449;28;20174;-73
2022/12/13 08:49:29;;;;;;;18.52;11.63;;;;;;;-6.13;100.00;100797.94;10370961;28;20084;-73
2022/12/13 08:54:34;;;;;;;10.70;9.48;;;;;;;-6.02;100.00;100804.09;10369835;28;20068;-73
2022/12/13 08:59:35;;;;;;;9.07;8.23;;;;;;;-5.91;100.00;100823.88;10370198;28;20125;-74
2022/12/13 09:04:37;;;;;;;12.73;9.70;;;;;;;-5.76;100.00;100821.69;10375690;28;20516;-73
2022/12/13 09:09:40;;;;;;;12.73;10.65;;;;;;;-5.56;100.00;100812.03;10375830;28;20156;-72
2022/12/13 09:14:42;;;;;;;6.45;6.05;;;;;;;-5.58;100.00;100812.81;10377572;28;20160;-73
2022/12/13 09:19:44;;;;;;;12.50;10.15;;;;;;;-5.54;100.00;100813.72;10377965;28;20060;-74
2022/12/13 09:24:47;;;;;;;13.32;8.95;;;;;;;-5.41;100.00;100810.63;10376866;28;20483;-73
2022/12/13 09:29:49;;;;;;;9.07;7.05;;;;;;;-5.45;100.00;100814.81;10376902;28;20097;-74
2022/12/13 09:34:50;;;;;;;13.38;11.95;;;;;;;-5.32;100.00;100815.09;10376595;28;20412;-74
2022/12/13 09:39:53;;;;;;;7.55;6.88;;;;;;;-5.28;100.00;100811.78;10373668;28;20525;-72
2022/12/13 09:45:01;;;;;;;20.92;13.90;;;;;;;-5.15;100.00;100812.91;10375859;28;20155;-77
2022/12/13 09:50:09;;;;;;;20.63;9.95;;;;;;;-5.01;100.00;100814.88;10374896;28;20129;-76
2022/12/13 09:55:21;;;;;;;10.35;8.15;;;;;;;-4.61;100.00;100809.75;10375855;28;20078;-77
2022/12/13 10:00:33;;;;;;;12.70;10.60;;;;;;;-4.06;100.00;100811.63;10375856;28;20068;-76
2022/12/13 10:05:37;;;;;;;15.07;12.95;;;;;;;-3.59;100.00;100804.72;10375747;28;20097;-78
2022/12/13 10:10:42;;;;;;;14.82;11.82;;;;;;;-3.90;100.00;100811.03;10372603;28;20074;-75
2022/12/13 10:15:50;;;;;;;8.65;7.82;;;;;;;-3.88;100.00;100794.09;10374201;28;20069;-74
2022/12/13 10:20:54;;;;;;;13.93;10.63;;;;;;;-2.75;100.00;100777.75;10375637;28;20064;-74
2022/12/13 10:25:57;;;;;;;16.08;10.95;;;;;;;-3.45;100.00;100795.59;10374226;28;20442;-73
2022/12/13 10:31:01;;;;;;;32.72;18.88;;;;;;;-3.27;100.00;100776.28;10374262;28;20151;-73
2022/12/13 10:36:15;;;;;;;19.50;12.65;;;;;;;-2.38;100.00;100767.97;10374696;28;20068;-72
2022/12/13 10:41:36;;;;;;;20.40;12.82;;;;;;;-2.20;100.00;100758.72;10371671;28;20517;-72
2022/12/13 10:46:40;;;;;;;10.13;8.40;;;;;;;-3.04;100.00;100757.84;10373615;28;20082;-72
2022/12/13 10:51:44;;;;;;;20.25;14.75;;;;;;;-1.99;100.00;100757.22;10369601;28;20094;-71
2022/12/13 10:56:52;;;;;;;22.67;15.40;;;;;;;-1.33;100.00;100744.00;10369328;28;20511;-73
2022/12/13 11:01:54;;;;;;;29.73;15.52;;;;;;;-1.12;100.00;100737.28;10373214;28;20092;-70
2022/12/13 11:06:59;;;;;;;20.30;13.15;;;;;;;-0.63;100.00;100732.28;10380515;28;20092;-71
2022/12/13 11:12:12;;;;;;;21.33;12.57;;;;;;;-2.43;100.00;100730.41;10371276;28;20068;-73
2022/12/13 11:17:20;;;;;;;;;;;;;;;-1.85;100.00;100724.06;10414530;28;20104;-71
2022/12/13 11:22:26;;;;;;;21.67;12.88;;;;;;;-2.42;100.00;100714.22;10413074;28;19991;-76
2022/12/13 11:27:58;;;;;;;12.35;9.50;;;;;;;-2.55;100.00;100718.34;10412312;28;20482;-72
2022/12/13 11:33:25;;;;;;;26.97;14.83;;;;;;;-2.30;100.00;100713.50;10412311;28;20065;-71
2022/12/13 11:38:35;;;;;;;21.02;13.38;;;;;;;-2.46;100.00;100715.91;10412711;28;20085;-71
2022/12/13 11:43:47;;;;;;;21.67;12.95;;;;;;;-2.56;100.00;100703.88;10410437;28;20112;-71
2022/12/13 11:48:59;;;;;;;16.98;10.68;;;;;;;-2.57;100.00;100707.28;10412985;28;20128;-71
2022/12/13 11:54:08;;;;;;;23.17;11.23;;;;;;;-2.69;100.00;100693.53;10403638;28;20119;-70
2022/12/13 11:59:27;;;;;;;19.25;11.38;;;;;;;-2.62;100.00;100684.22;10372165;28;20548;-71
2022/12/13 12:04:37;;;;;;;30.17;13.32;;;;;;;-2.61;100.00;100675.72;10331497;28;20095;-71
2022/12/13 12:09:49;;;;;;;15.15;10.63;;;;;;;-2.46;100.00;100669.91;10364642;28;20063;-70
2022/12/13 12:15:00;;;;;;;18.98;11.18;;;;;;;-2.41;100.00;100675.91;10370515;28;20456;-70
2022/12/13 12:20:03;;;;;;;14.30;9.90;;;;;;;-2.33;100.00;100656.38;10371203;28;20062;-70
2022/12/13 12:25:26;;;;;;;15.90;10.68;;;;;;;-2.29;100.00;100659.78;10370500;28;20557;-70
2022/12/13 12:30:44;;;;;;;14.25;9.38;;;;;;;-2.43;100.00;100669.06;10371116;28;20069;-70
2022/12/13 12:36:09;;;;;;;14.38;8.48;;;;;;;-2.46;100.00;100659.69;10370777;28;20070;-71
2022/12/13 12:41:28;;;;;;;11.25;8.60;;;;;;;-2.49;100.00;100654.53;10376021;28;20068;-72
2022/12/13 12:46:53;;;;;;;19.30;9.02;;;;;;;-2.37;100.00;100658.88;10378125;28;20130;-71
2022/12/13 12:52:06;;;;;;;11.77;6.10;;;;;;;-2.56;100.00;100663.84;10378431;28;20434;-72
2022/12/13 12:57:23;;;;;;;11.23;8.40;;;;;;;-2.38;100.00;100673.38;10376622;28;20264;-70
2022/12/13 13:02:39;;;;;;;14.00;10.82;;;;;;;-2.41;100.00;100658.00;10362934;28;20057;-71
2022/12/13 13:07:50;;;;;;;8.90;8.05;;;;;;;-2.38;100.00;100650.38;10368832;28;20475;-71
2022/12/13 13:12:51;;;;;;;13.38;8.55;;;;;;;-2.29;100.00;100658.94;10345581;28;20541;-71
2022/12/13 13:17:55;;;;;;;14.93;9.65;;;;;;;-2.20;100.00;100664.13;10374115;28;20097;-71
2022/12/13 13:22:58;;;;;;;14.90;9.90;;;;;;;-2.13;100.00;100642.88;10374760;28;20132;-71
2022/12/13 13:28:06;;;;;;;12.15;9.30;;;;;;;-2.10;100.00;100653.13;10356159;28;20496;-70
2022/12/13 13:33:46;;;;;;;16.67;10.40;;;;;;;-2.27;100.00;100647.03;10367254;28;20098;-71
2022/12/13 13:38:52;;;;;;;12.73;9.57;;;;;;;-2.21;100.00;100644.53;10373801;28;20065;-71
2022/12/13 13:43:53;;;;;;;12.63;9.38;;;;;;;-2.21;100.00;100634.28;10376202;28;20079;-70
2022/12/13 13:49:03;;;;;;;13.32;9.75;;;;;;;-2.26;100.00;100612.97;10374970;28;20078;-71
2022/12/13 13:54:42;;;;;;;13.38;8.93;;;;;;;-2.19;100.00;100622.34;10375867;28;20102;-70
2022/12/13 14:00:14;;;;;;;12.85;10.02;;;;;;;-2.26;100.00;100610.41;10349552;28;20080;-70
2022/12/13 14:06:28;;;;;;;12.55;9.88;;;;;;;-2.29;100.00;100600.97;10369842;28;20081;-70
2022/12/13 14:12:24;;;;;;;14.48;8.63;;;;;;;-2.32;100.00;100606.09;10331249;28;20441;-70
2022/12/13 14:18:20;;;;;;;21.60;10.13;;;;;;;-2.31;100.00;100606.94;10333772;28;20121;-69
2022/12/13 14:23:45;;;;;;;14.05;8.57;;;;;;;-2.35;100.00;100596.72;10333777;28;20139;-69
2022/12/13 14:28:51;;;;;;;8.73;7.78;;;;;;;-2.30;100.00;100585.66;10334069;28;20075;-69
2022/12/13 14:33:56;;;;;;;12.60;8.38;;;;;;;-2.35;100.00;100578.81;10333186;28;20512;-69
2022/12/13 14:39:05;;;;;;;10.48;7.90;;;;;;;-2.35;100.00;100573.72;10330843;28;20074;-68
2022/12/13 14:44:14;;;;;;;8.45;6.50;;;;;;;-2.40;100.00;100572.81;10333418;28;20138;-69
2022/12/13 14:49:16;;;;;;;11.95;8.20;;;;;;;-2.51;100.00;100580.41;10332462;28;20126;-69
2022/12/13 14:54:22;;;;;;;9.32;7.68;;;;;;;-2.59;100.00;100577.78;10332872;28;20161;-69
2022/12/13 14:59:24;;;;;;;10.90;8.45;;;;;;;-2.69;100.00;100567.47;10332002;28;20157;-69
2022/12/13 15:04:30;;;;;;;10.50;8.05;;;;;;;-2.78;100.00;100556.34;10332464;28;20091;-69
2022/12/13 15:09:37;;;;;;;15.90;10.20;;;;;;;-2.85;100.00;100565.66;10329587;28;20075;-68
2022/12/13 15:14:43;;;;;;;12.02;9.57;;;;;;;-2.92;100.00;100552.81;10332058;28;20126;-69
2022/12/13 15:19:45;;;;;;;19.35;10.20;;;;;;;-3.01;100.00;100551.88;10348988;28;20140;-69
2022/12/13 15:24:51;;;;;;;8.82;8.02;;;;;;;-3.13;100.00;100545.00;10371002;28;20082;-68
2022/12/13 15:29:54;;;;;;;15.68;9.55;;;;;;;-3.26;100.00;100536.34;10333569;28;20078;-70
2022/12/13 15:35:16;;;;;;;9.57;7.40;;;;;;;-3.37;100.00;100527.72;10366173;28;20073;-69
2022/12/13 15:40:19;;;;;;;7.68;6.95;;;;;;;-3.44;100.00;100531.06;10371636;28;20086;-69
2022/12/13 15:45:25;;;;;;;8.57;7.68;;;;;;;-3.47;100.00;100524.22;10373153;28;20088;-70
2022/12/13 15:50:34;;;;;;;12.23;8.00;;;;;;;-3.53;100.00;100516.50;10373669;28;20095;-69
2022/12/13 15:55:39;;;;;;;9.20;6.85;;;;;;;-3.59;100.00;100513.88;10372428;28;20151;-69
2022/12/13 16:00:49;;;;;;;10.25;9.05;;;;;;;-3.64;100.00;100512.16;10372141;28;20167;-69
2022/12/13 16:05:54;;;;;;;8.10;6.88;;;;;;;-3.50;100.00;100508.88;10371339;28;20100;-69
2022/12/13 16:10:59;;;;;;;10.88;7.65;;;;;;;-3.52;100.00;100515.69;10369096;28;20115;-69
2022/12/13 16:16:20;;;;;;;10.00;7.72;;;;;;;-3.56;100.00;100503.72;10370949;28;20545;-70
2022/12/13 16:21:22;;;;;;;10.13;7.22;;;;;;;-3.60;100.00;100514.75;10365654;28;20078;-70
2022/12/13 16:26:28;;;;;;;15.18;9.00;;;;;;;-3.44;100.00;100516.59;10367283;28;20086;-70
2022/12/13 16:31:34;;;;;;;12.73;9.18;;;;;;;-3.53;100.00;100527.56;10370405;28;20489;-70
2022/12/13 16:36:37;;;;;;;10.50;8.00;;;;;;;-3.49;100.00;100525.91;10369954;28;20069;-70
2022/12/13 16:41:44;;;;;;;10.90;7.75;;;;;;;-3.48;100.00;100512.31;10367323;28;20573;-70
2022/12/13 16:46:47;;;;;;;7.80;7.07;;;;;;;-3.60;100.00;100507.94;10370467;28;20541;-69
2022/12/13 16:51:49;;;;;;;14.05;9.23;;;;;;;-3.65;100.00;100510.44;10370474;28;20519;-69
2022/12/13 16:56:54;;;;;;;9.10;7.60;;;;;;;-3.70;100.00;100496.75;10369660;28;20071;-69
2022/12/13 17:01:56;;;;;;;11.18;5.97;;;;;;;-3.72;100.00;100495.91;10369213;28;20423;-69
2022/12/13 17:06:57;;;;;;;12.68;7.68;;;;;;;-3.82;100.00;100484.75;10367906;28;20430;-69
2022/12/13 17:12:00;;;;;;;6.43;5.88;;;;;;;-3.75;100.00;100488.22;10365587;28;20109;-69
2022/12/13 17:17:02;;;;;;;8.48;7.15;;;;;;;-3.49;100.00;100496.13;10368383;28;20073;-69
2022/12/13 17:22:04;;;;;;;7.55;6.72;;;;;;;-3.56;100.00;100503.72;10370188;28;20426;-69
2022/12/13 17:27:07;;;;;;;13.88;8.10;;;;;;;-3.70;100.00;100506.97;10375976;28;20119;-68
2022/12/13 17:32:10;;;;;;;11.30;8.55;;;;;;;-3.82;100.00;100501.72;10376749;28;20076;-70
2022/12/13 17:37:12;;;;;;;9.38;8.00;;;;;;;-3.86;100.00;100500.00;10376742;28;20125;-69
2022/12/13 17:42:15;;;;;;;10.38;8.73;;;;;;;-4.01;100.00;100481.97;10374540;28;20072;-69
2022/12/13 17:47:17;;;;;;;9.82;8.52;;;;;;;-4.08;100.00;100484.44;10375972;28;20548;-69
2022/12/13 17:52:20;;;;;;;9.60;7.88;;;;;;;-4.10;100.00;100475.91;10375979;28;20072;-69
2022/12/13 17:57:23;;;;;;;7.43;6.78;;;;;;;-4.05;100.00;100479.38;10373771;28;20143;-70
2022/12/13 18:02:26;;;;;;;10.85;7.43;;;;;;;-4.07;100.00;100481.06;10376098;28;20067;-69
2022/12/13 18:07:28;;;;;;;7.53;6.45;;;;;;;-4.10;100.00;100481.88;10375375;28;20643;-69
2022/12/13 18:12:31;;;;;;;10.13;8.00;;;;;;;-4.06;100.00;100473.44;10371375;28;20125;-69
2022/12/13 18:17:33;;;;;;;13.98;7.25;;;;;;;-4.05;100.00;100484.47;10374987;28;20116;-70
2022/12/13 18:22:36;;;;;;;9.73;7.63;;;;;;;-4.09;100.00;100486.13;10374285;28;20062;-70
2022/12/13 18:27:39;;;;;;;12.27;8.82;;;;;;;-4.10;100.00;100481.88;10373431;28;20488;-70
2022/12/13 18:32:42;;;;;;;8.20;7.43;;;;;;;-4.15;100.00;100479.25;10369243;28;20508;-69
2022/12/13 18:37:44;;;;;;;7.80;6.88;;;;;;;-4.18;100.00;100474.13;10375352;28;20074;-70
2022/12/13 18:42:49;;;;;;;18.08;7.57;;;;;;;-4.19;100.00;100469.88;10383837;28;20121;-70
2022/12/13 18:47:50;;;;;;;12.82;8.30;;;;;;;-4.26;100.00;100455.34;10413682;28;20086;-70
2022/12/13 18:52:52;;;;;;;6.40;5.80;;;;;;;-4.32;100.00;100452.69;10374530;28;20133;-70
2022/12/13 18:57:55;;;;;;;8.75;6.35;;;;;;;-4.36;100.00;100439.06;10374439;28;20324;-70
2022/12/13 19:02:57;;;;;;;10.15;8.77;;;;;;;-4.35;100.00;100439.94;10373017;28;20518;-70
2022/12/13 19:07:59;;;;;;;7.75;6.32;;;;;;;-4.35;100.00;100437.41;10373853;28;20089;-71
2022/12/13 19:13:03;;;;;;;9.30;7.63;;;;;;;-4.34;100.00;100436.56;10369915;28;20437;-71
2022/12/13 19:18:05;;;;;;;6.45;5.95;;;;;;;-4.31;100.00;100431.50;10372431;28;20068;-70
2022/12/13 19:23:08;;;;;;;8.63;6.25;;;;;;;-4.25;100.00;100429.00;10371590;28;20127;-71
2022/12/13 19:28:14;;;;;;;10.02;7.70;;;;;;;-4.31;100.00;100422.16;10368407;28;20493;-71
2022/12/13 19:33:16;;;;;;;9.30;7.25;;;;;;;-4.25;100.00;100418.81;10364577;28;20580;-70
2022/12/13 19:38:17;;;;;;;9.63;7.35;;;;;;;-4.25;100.00;100410.34;10367754;28;20068;-71
2022/12/13 19:43:23;;;;;;;8.93;6.65;;;;;;;-4.27;100.00;100400.94;10365674;28;20460;-70
2022/12/13 19:48:25;;;;;;;11.45;7.15;;;;;;;-4.21;100.00;100395.06;10369550;28;20088;-71
2022/12/13 19:53:29;;;;;;;13.77;7.55;;;;;;;-4.21;100.00;100387.44;10370652;28;20082;-70
2022/12/13 19:58:32;;;;;;;10.30;8.05;;;;;;;-4.21;100.00;100382.34;10372105;28;20072;-71
2022/12/13 20:03:35;;;;;;;9.43;7.53;;;;;;;-4.18;100.00;100382.38;10371489;28;20546;-70
2022/12/13 20:08:37;;;;;;;8.48;7.32;;;;;;;-4.14;100.00;100358.63;10371702;28;20083;-71
2022/12/13 20:13:42;;;;;;;12.18;7.65;;;;;;;-4.13;100.00;100354.41;10368825;28;20072;-70
2022/12/13 20:18:44;;;;;;;9.02;7.40;;;;;;;-4.05;100.00;100344.25;10371193;28;20128;-70
2022/12/13 20:23:46;;;;;;;;;;;;;;;-4.06;100.00;100329.81;10371870;28;20070;-70
2022/12/13 20:28:50;;;;;;;7.63;5.68;;;;;;;-3.97;100.00;100329.06;10370668;28;20054;-71
2022/12/13 20:33:58;;;;;;;10.05;7.22;;;;;;;-3.96;100.00;100320.56;10370561;28;20128;-70
2022/12/13 20:39:02;;;;;;;6.18;5.38;;;;;;;-3.82;100.00;100313.88;10367043;28;20590;-71
2022/12/13 20:44:10;;;;;;;12.30;7.65;;;;;;;-3.64;100.00;100313.19;10369686;28;20155;-71
2022/12/13 20:49:12;;;;;;;9.00;6.53;;;;;;;-3.59;100.00;100312.34;10370212;28;20467;-71
2022/12/13 20:54:13;;;;;;;14.38;8.20;;;;;;;-3.64;100.00;100305.53;10369132;28;20070;-71
2022/12/13 20:59:17;;;;;;;12.30;11.10;;;;;;;-3.67;100.00;100282.53;10372480;28;20076;-73
2022/12/13 21:04:18;;;;;;;5.13;4.75;;;;;;;-3.60;100.00;100290.25;10377516;28;20102;-71
2022/12/13 21:09:20;;;;;;;7.32;6.65;;;;;;;-3.59;100.00;100274.09;10376506;28;20072;-70
2022/12/13 21:14:27;;;;;;;10.50;7.30;;;;;;;-3.65;100.00;100270.66;10378108;28;20105;-70
2022/12/13 21:19:32;;;;;;;13.85;7.50;;;;;;;-3.68;100.00;100270.63;10378789;28;20065;-71
2022/12/13 21:24:35;;;;;;;8.77;6.68;;;;;;;-3.70;100.00;100272.31;10378771;28;20089;-71
2022/12/13 21:29:38;;;;;;;9.10;8.25;;;;;;;-3.60;100.00;100252.81;10378302;28;20070;-71
2022/12/13 21:34:41;;;;;;;10.63;6.85;;;;;;;-3.63;100.00;100253.66;10377456;28;20064;-72
2022/12/13 21:39:42;;;;;;;8.68;6.70;;;;;;;-3.60;100.00;100246.88;10376029;28;20078;-72
2022/12/13 21:44:52;;;;;;;6.87;5.83;;;;;;;-3.65;100.00;100240.06;10378252;28;20093;-73
2022/12/13 21:49:53;;;;;;;8.43;7.18;;;;;;;-3.71;100.00;100234.91;10376667;28;20322;-73
2022/12/13 21:54:55;;;;;;;7.83;6.60;;;;;;;-3.76;100.00;100221.28;10376259;28;20115;-72
2022/12/13 21:59:58;;;;;;;6.07;5.60;;;;;;;-3.72;100.00;100223.00;10375570;28;20740;-71
2022/12/13 22:05:00;;;;;;;6.63;4.35;;;;;;;-3.77;100.00;100222.09;10375415;28;20092;-71
2022/12/13 22:10:02;;;;;;;6.90;6.40;;;;;;;-3.74;100.00;100219.56;10372272;28;20134;-71
2022/12/13 22:15:09;;;;;;;5.82;5.30;;;;;;;-3.66;100.00;100201.78;10374973;28;20068;-72
2022/12/13 22:20:14;;;;;;;7.75;6.10;;;;;;;-3.74;100.00;100199.16;10375482;28;20070;-72
2022/12/13 22:25:17;;;;;;;11.43;7.38;;;;;;;-3.73;100.00;100195.75;10374785;28;20138;-71
2022/12/13 22:30:20;;;;;;;6.38;5.75;;;;;;;-3.73;100.00;100190.66;10374705;28;20070;-72
2022/12/13 22:35:22;;;;;;;7.50;5.75;;;;;;;-3.79;100.00;100183.88;10374403;28;20066;-71
2022/12/13 22:40:24;;;;;;;3.43;3.23;;;;;;;-3.84;100.00;100190.59;10371716;28;20153;-72
2022/12/13 22:45:27;;;;;;;7.30;5.47;;;;;;;-3.82;100.00;100190.63;10373919;28;20409;-72
2022/12/13 22:50:28;;;;;;;6.50;5.30;;;;;;;-3.94;100.00;100188.88;10373300;28;20730;-72
2022/12/13 22:55:30;;;;;;;7.43;5.10;;;;;;;-3.83;100.00;100189.75;10373858;28;20117;-72
2022/12/13 23:00:33;;;;;;;8.75;5.95;;;;;;;-3.88;100.00;100194.84;10373287;28;20068;-71
2022/12/13 23:05:36;;;;;;;5.18;4.75;;;;;;;-3.97;100.00;100187.13;10372995;28;20102;-72
2022/12/13 23:15:58;;;;;;;7.20;5.55;;;;;;;-3.99;100.00;100191.38;10372730;28;20064;-72
2022/12/13 23:20:59;;;;;;;7.75;4.32;;;;;;;-3.86;100.00;100177.00;10373542;28;20065;-72